Time;durP1;ratioP1;P1;durP2;ratioP2;P2;SDS_P1;SDS_P2;PMS_P1;PMS_P2;Temp;Humidity;BMP_temperature;BMP_pressure;BME280_temperature;BME280_humidity;BME280_pressure;Samples;Min_cycle;Max_cycle;Signal;HPM_P1;HPM_P2
2022/04/11 00:00:18;;;;;;;2.50;0.90;;;17.70;53.00;;;;;;5020766;28;20071;-60
2022/04/11 00:02:43;;;;;;;1.77;0.93;;;17.70;52.90;;;;;;5013804;28;20022;-60
2022/04/11 00:05:09;;;;;;;1.42;0.82;;;17.70;52.80;;;;;;5015287;28;20029;-60
2022/04/11 00:07:34;;;;;;;2.13;0.80;;;17.70;52.70;;;;;;5019238;28;20030;-60
2022/04/11 00:10:00;;;;;;;1.73;0.95;;;17.70;53.10;;;;;;5015914;28;20048;-60
2022/04/11 00:12:26;;;;;;;1.33;0.70;;;17.70;53.40;;;;;;5018642;28;20109;-60
2022/04/11 00:14:52;;;;;;;2.33;0.90;;;17.70;52.90;;;;;;5015861;28;20117;-60
2022/04/11 00:17:18;;;;;;;2.03;0.90;;;17.70;53.00;;;;;;5016331;28;20048;-60
2022/04/11 00:19:44;;;;;;;2.15;0.77;;;17.70;52.80;;;;;;5019718;28;20079;-60
2022/04/11 00:22:09;;;;;;;2.58;0.88;;;17.60;52.80;;;;;;5016306;28;20026;-60
2022/04/11 00:24:35;;;;;;;2.22;0.90;;;17.60;53.10;;;;;;5018948;28;20099;-60
2022/04/11 00:27:01;;;;;;;1.17;0.65;;;17.60;53.00;;;;;;5021785;28;20026;-60
2022/04/11 00:29:26;;;;;;;1.63;0.85;;;17.70;52.90;;;;;;5021293;28;20120;-60
2022/04/11 00:31:52;;;;;;;1.77;0.80;;;17.60;53.10;;;;;;5015602;28;20425;-61
2022/04/11 00:34:17;;;;;;;2.80;1.10;;;17.60;52.90;;;;;;5020606;28;20490;-60
2022/04/11 00:36:43;;;;;;;1.48;0.80;;;17.60;53.10;;;;;;5020409;28;20498;-60
2022/04/11 00:39:09;;;;;;;2.28;0.90;;;17.60;53.10;;;;;;5024702;28;20033;-60
2022/04/11 00:41:34;;;;;;;2.75;0.90;;;17.60;53.10;;;;;;5022514;28;20025;-60
2022/04/11 00:44:00;;;;;;;2.03;0.90;;;17.60;53.10;;;;;;5015643;28;20664;-60
2022/04/11 00:46:25;;;;;;;2.00;0.95;;;17.60;53.20;;;;;;5017306;28;20030;-60
2022/04/11 00:48:51;;;;;;;3.33;1.00;;;17.50;53.20;;;;;;5017146;28;20108;-60
2022/04/11 00:51:21;;;;;;;2.08;0.85;;;17.50;53.20;;;;;;5016337;28;20048;-60
2022/04/11 00:53:47;;;;;;;1.65;0.70;;;17.50;53.10;;;;;;5021000;28;20109;-60
2022/04/11 00:56:13;;;;;;;1.48;0.90;;;17.50;53.00;;;;;;5019072;28;20041;-60
2022/04/11 00:58:39;;;;;;;1.70;0.60;;;17.50;52.80;;;;;;5017546;28;20028;-60
2022/04/11 01:01:05;;;;;;;1.40;0.80;;;17.50;52.50;;;;;;5018843;28;20025;-60
2022/04/11 01:03:32;;;;;;;2.42;0.90;;;17.50;52.80;;;;;;5017052;28;20084;-60
2022/04/11 01:05:57;;;;;;;1.20;0.75;;;17.50;52.50;;;;;;5017985;28;20038;-60
2022/04/11 01:08:23;;;;;;;1.92;0.77;;;17.50;52.80;;;;;;5013409;28;20040;-60
2022/04/11 01:10:49;;;;;;;1.35;0.85;;;17.40;53.00;;;;;;5021970;28;20498;-60
2022/04/11 01:13:15;;;;;;;1.55;1.00;;;17.50;52.80;;;;;;5018425;28;20076;-60
2022/04/11 01:15:41;;;;;;;1.83;0.90;;;17.40;53.00;;;;;;5023652;28;20080;-60
2022/04/11 01:18:06;;;;;;;1.75;0.77;;;17.40;53.00;;;;;;5018093;28;20100;-60
2022/04/11 01:20:32;;;;;;;1.45;0.70;;;17.40;52.60;;;;;;5016393;28;20398;-60
2022/04/11 01:22:58;;;;;;;1.13;0.68;;;17.40;52.90;;;;;;5016715;28;20099;-60
2022/04/11 01:25:23;;;;;;;1.70;0.98;;;17.40;52.90;;;;;;5016454;28;20028;-60
2022/04/11 01:27:49;;;;;;;1.83;0.98;;;17.40;53.00;;;;;;5017561;28;20315;-60
2022/04/11 01:30:15;;;;;;;1.40;0.93;;;17.40;52.90;;;;;;5022245;28;20536;-60
2022/04/11 01:32:41;;;;;;;1.45;0.70;;;17.40;52.70;;;;;;5019036;28;20026;-60
2022/04/11 01:35:26;;;;;;;2.10;0.90;;;17.40;52.60;;;;;;5020966;28;20163;-60
2022/04/11 01:37:55;;;;;;;1.45;0.80;;;17.30;52.60;;;;;;5016538;28;20025;-60
2022/04/11 01:40:20;;;;;;;1.17;0.80;;;17.30;52.60;;;;;;5017186;28;20073;-60
2022/04/11 01:42:46;;;;;;;2.25;1.05;;;17.30;52.20;;;;;;5022538;28;20042;-60
2022/04/11 01:45:13;;;;;;;2.22;0.90;;;17.30;52.20;;;;;;5021800;28;20039;-60
2022/04/11 01:47:39;;;;;;;1.60;0.93;;;17.30;52.20;;;;;;5019844;28;20084;-60
2022/04/11 01:50:06;;;;;;;1.33;0.70;;;17.30;52.40;;;;;;5021864;28;20022;-60
2022/04/11 01:52:32;;;;;;;2.45;0.93;;;17.30;52.50;;;;;;5016566;28;20032;-60
2022/04/11 01:54:58;;;;;;;1.25;0.90;;;17.30;52.10;;;;;;5021549;28;20037;-60
2022/04/11 01:57:23;;;;;;;1.00;0.55;;;17.30;52.90;;;;;;5021255;28;20063;-60
2022/04/11 01:59:49;;;;;;;1.77;0.90;;;17.30;52.30;;;;;;5018069;28;20033;-60
2022/04/11 02:02:15;;;;;;;1.30;0.77;;;17.20;52.40;;;;;;5016221;28;20661;-60
2022/04/11 02:04:40;;;;;;;1.33;0.80;;;17.20;52.30;;;;;;5016801;28;20124;-60
2022/04/11 02:07:06;;;;;;;1.92;1.00;;;17.20;52.00;;;;;;5013481;28;20432;-60
2022/04/11 02:09:32;;;;;;;1.15;0.82;;;17.20;52.10;;;;;;5017047;28;20057;-60
2022/04/11 02:11:57;;;;;;;0.95;0.80;;;17.20;51.90;;;;;;5022450;28;20029;-60
2022/04/11 02:14:23;;;;;;;1.20;0.80;;;17.20;52.30;;;;;;5013470;28;20033;-60
2022/04/11 02:16:48;;;;;;;1.75;0.90;;;17.20;52.10;;;;;;5015462;28;20025;-60
2022/04/11 02:19:14;;;;;;;1.90;1.00;;;17.20;52.00;;;;;;5016804;28;20037;-60
2022/04/11 02:21:40;;;;;;;1.67;0.90;;;17.20;52.00;;;;;;5018185;28;20341;-60
2022/04/11 02:24:06;;;;;;;2.35;0.90;;;17.20;52.00;;;;;;5018163;28;20025;-60
2022/04/11 02:26:31;;;;;;;1.17;0.80;;;17.20;52.10;;;;;;5016424;28;20033;-60
2022/04/11 02:28:57;;;;;;;1.80;1.00;;;17.20;52.00;;;;;;5018045;28;20041;-60
2022/04/11 02:31:23;;;;;;;1.00;0.90;;;17.10;52.00;;;;;;5016867;28;20410;-60
2022/04/11 02:33:48;;;;;;;1.98;0.95;;;17.20;52.20;;;;;;5015525;28;20487;-60
2022/04/11 02:36:14;;;;;;;1.95;0.88;;;17.20;52.00;;;;;;5016356;28;20029;-60
2022/04/11 02:38:40;;;;;;;1.85;0.82;;;17.10;52.00;;;;;;5012946;28;20026;-60
2022/04/11 02:41:05;;;;;;;0.98;0.82;;;17.10;52.10;;;;;;5020296;28;20029;-60
2022/04/11 02:43:31;;;;;;;2.40;0.80;;;17.10;52.10;;;;;;5014252;28;20064;-60
2022/04/11 02:45:56;;;;;;;1.58;1.00;;;17.10;52.10;;;;;;5011038;28;20045;-60
2022/04/11 02:48:22;;;;;;;1.00;0.63;;;17.10;52.10;;;;;;5021122;28;20041;-60
2022/04/11 02:50:48;;;;;;;1.05;0.85;;;17.10;52.10;;;;;;5018051;28;20034;-60
2022/04/11 02:53:13;;;;;;;2.05;1.00;;;17.10;52.10;;;;;;5019654;28;20034;-60
2022/04/11 02:55:39;;;;;;;1.80;1.10;;;17.10;52.10;;;;;;5010376;28;20036;-60
2022/04/11 02:58:05;;;;;;;0.90;0.70;;;17.10;53.20;;;;;;5016709;28;20447;-60
2022/04/11 03:00:30;;;;;;;1.70;0.90;;;17.00;52.20;;;;;;5021308;28;20406;-60
2022/04/11 03:02:56;;;;;;;1.77;1.00;;;17.10;52.10;;;;;;5012102;28;20296;-60
2022/04/11 03:05:21;;;;;;;0.85;0.75;;;17.10;52.20;;;;;;5016347;28;20443;-60
2022/04/11 03:07:47;;;;;;;1.30;0.80;;;17.00;52.20;;;;;;5017598;28;20022;-60
2022/04/11 03:10:13;;;;;;;1.58;0.80;;;17.10;52.20;;;;;;5013353;28;20096;-60
2022/04/11 03:12:39;;;;;;;1.00;0.85;;;17.00;52.20;;;;;;5014008;28;20033;-60
2022/04/11 03:15:05;;;;;;;1.30;0.85;;;17.00;52.20;;;;;;5018323;28;20022;-60
2022/04/11 03:17:31;;;;;;;1.23;0.90;;;17.00;52.20;;;;;;5015872;28;20038;-60
2022/04/11 03:19:56;;;;;;;0.73;0.70;;;17.00;52.20;;;;;;5016110;28;20049;-60
2022/04/11 03:22:22;;;;;;;1.80;0.70;;;17.00;52.20;;;;;;5020207;28;20398;-60
2022/04/11 03:24:48;;;;;;;3.22;0.82;;;17.00;52.30;;;;;;5016461;28;20041;-60
2022/04/11 03:27:13;;;;;;;1.67;0.82;;;16.90;52.10;;;;;;5022913;28;20083;-60
2022/04/11 03:29:39;;;;;;;1.33;0.80;;;17.00;52.20;;;;;;5014904;28;20022;-60
2022/04/11 03:32:05;;;;;;;2.42;0.90;;;17.00;52.30;;;;;;5012140;28;20080;-60
2022/04/11 03:34:31;;;;;;;0.98;0.70;;;16.90;52.30;;;;;;5017928;28;20029;-60
2022/04/11 03:36:56;;;;;;;1.90;0.98;;;16.90;52.30;;;;;;5013298;28;20391;-60
2022/04/11 03:39:22;;;;;;;1.27;0.73;;;17.00;52.40;;;;;;5016043;28;20390;-60
2022/04/11 03:41:48;;;;;;;1.55;0.75;;;17.00;52.30;;;;;;5018127;28;20125;-60
2022/04/11 03:44:13;;;;;;;2.63;0.90;;;16.90;52.30;;;;;;5013609;28;20433;-60
2022/04/11 03:46:39;;;;;;;0.90;0.80;;;16.90;52.30;;;;;;5018360;28;20018;-60
2022/04/11 03:49:05;;;;;;;1.67;0.77;;;16.90;52.30;;;;;;5017365;28;20132;-60
2022/04/11 03:51:31;;;;;;;1.67;0.80;;;16.90;52.30;;;;;;5020616;28;20043;-60
2022/04/11 03:53:57;;;;;;;0.82;0.73;;;16.90;52.30;;;;;;5018314;28;20491;-60
2022/04/11 03:56:22;;;;;;;1.83;0.85;;;16.90;52.40;;;;;;5014865;28;20242;-60
2022/04/11 03:58:48;;;;;;;1.13;0.85;;;16.90;52.50;;;;;;5022183;28;20516;-60
2022/04/11 04:01:14;;;;;;;1.17;0.85;;;16.90;52.40;;;;;;5016354;28;20030;-60
2022/04/11 04:03:40;;;;;;;0.93;0.70;;;16.90;52.50;;;;;;5019743;28;20061;-60
2022/04/11 04:06:06;;;;;;;1.05;0.80;;;16.90;52.40;;;;;;5022036;28;20030;-60
2022/04/11 04:08:31;;;;;;;1.20;0.68;;;16.80;52.30;;;;;;5021142;28;20033;-62
2022/04/11 04:10:57;;;;;;;1.58;0.93;;;16.90;52.50;;;;;;5015830;28;20038;-60
2022/04/11 04:13:23;;;;;;;1.17;0.70;;;16.90;52.40;;;;;;5016164;28;20418;-60
2022/04/11 04:15:48;;;;;;;1.70;0.90;;;16.90;52.50;;;;;;5024349;28;20029;-60
2022/04/11 04:18:14;;;;;;;1.10;0.80;;;16.90;52.50;;;;;;5020822;28;20270;-60
2022/04/11 04:20:40;;;;;;;1.15;0.88;;;16.90;52.50;;;;;;5021426;28;20050;-60
2022/04/11 04:23:06;;;;;;;2.03;0.90;;;16.80;52.60;;;;;;5018530;28;20037;-60
2022/04/11 04:25:35;;;;;;;1.42;0.90;;;16.80;52.30;;;;;;5019156;28;20025;-60
2022/04/11 04:28:01;;;;;;;1.25;0.88;;;16.80;52.50;;;;;;5014639;28;20053;-60
2022/04/11 04:30:28;;;;;;;1.65;0.85;;;16.80;52.40;;;;;;5023813;28;20566;-60
2022/04/11 04:32:55;;;;;;;1.52;0.80;;;16.80;52.40;;;;;;5014527;28;20124;-60
2022/04/11 04:35:20;;;;;;;2.58;1.08;;;16.80;52.50;;;;;;5017849;28;20582;-60
2022/04/11 04:37:46;;;;;;;1.50;0.80;;;16.80;52.50;;;;;;5022021;28;20157;-60
2022/04/11 04:40:11;;;;;;;1.23;0.90;;;16.80;52.40;;;;;;5018114;28;20030;-60
2022/04/11 04:42:37;;;;;;;1.42;0.77;;;16.80;52.40;;;;;;5020089;28;20052;-60
2022/04/11 04:45:04;;;;;;;1.73;0.80;;;16.80;52.40;;;;;;5018069;28;20494;-60
2022/04/11 04:47:30;;;;;;;1.63;0.95;;;16.80;52.40;;;;;;5022421;28;20021;-60
2022/04/11 04:49:56;;;;;;;0.93;0.73;;;16.80;52.40;;;;;;5018393;28;20458;-60
2022/04/11 04:52:21;;;;;;;1.65;0.90;;;16.80;52.50;;;;;;5014578;28;20590;-60
2022/04/11 04:54:47;;;;;;;1.60;0.95;;;16.80;52.50;;;;;;5019400;28;20573;-60
2022/04/11 04:57:13;;;;;;;0.95;0.85;;;16.80;52.40;;;;;;5020857;28;20037;-60
2022/04/11 04:59:38;;;;;;;1.27;0.75;;;16.70;52.50;;;;;;5020455;28;20030;-60
2022/04/11 05:02:04;;;;;;;1.27;0.77;;;16.70;52.40;;;;;;5021649;28;20037;-60
2022/04/11 05:04:30;;;;;;;0.90;0.80;;;16.70;52.50;;;;;;5020358;28;20063;-60
2022/04/11 05:06:55;;;;;;;0.77;0.77;;;16.70;52.50;;;;;;5018658;28;20504;-60
2022/04/11 05:09:21;;;;;;;3.78;0.82;;;16.70;52.50;;;;;;5018803;28;20482;-60
2022/04/11 05:11:46;;;;;;;2.53;1.00;;;16.70;53.40;;;;;;5021267;28;20501;-60
2022/04/11 05:14:12;;;;;;;1.20;0.80;;;16.70;52.40;;;;;;5018429;28;20032;-60
2022/04/11 05:16:38;;;;;;;2.92;0.82;;;16.70;52.50;;;;;;5022030;28;20536;-60
2022/04/11 05:19:03;;;;;;;1.10;0.80;;;16.70;52.60;;;;;;5019055;28;20414;-60
2022/04/11 05:21:29;;;;;;;1.90;1.02;;;16.70;53.90;;;;;;5023478;28;20461;-60
2022/04/11 05:23:55;;;;;;;1.27;0.82;;;16.70;55.80;;;;;;5019655;28;20026;-60
2022/04/11 05:26:21;;;;;;;1.35;0.75;;;16.70;54.50;;;;;;5020586;28;20036;-60
2022/04/11 05:28:48;;;;;;;3.85;1.13;;;16.70;54.70;;;;;;5014990;28;20084;-60
2022/04/11 05:31:17;;;;;;;6.60;1.10;;;16.70;55.60;;;;;;5017467;28;20034;-60
2022/04/11 05:33:43;;;;;;;4.47;1.10;;;16.70;56.20;;;;;;5020511;28;20030;-60
2022/04/11 05:36:08;;;;;;;4.82;1.23;;;16.80;56.60;;;;;;5019291;28;20022;-60
2022/04/11 05:38:34;;;;;;;3.47;1.05;;;16.80;57.30;;;;;;5020187;28;20032;-60
2022/04/11 05:41:00;;;;;;;3.90;1.40;;;16.80;56.00;;;;;;5017725;28;20022;-60
2022/04/11 05:43:25;;;;;;;4.60;1.40;;;16.80;57.70;;;;;;5014853;28;20034;-60
2022/04/11 05:45:51;;;;;;;5.18;1.23;;;16.80;56.60;;;;;;5016457;28;20049;-60
2022/04/11 05:48:17;;;;;;;7.93;1.30;;;16.80;56.50;;;;;;5016324;28;20038;-60
2022/04/11 05:50:42;;;;;;;8.50;1.20;;;16.80;56.40;;;;;;5018357;28;20509;-60
2022/04/11 05:53:08;;;;;;;6.25;1.13;;;16.80;56.40;;;;;;5021692;28;20461;-60
2022/04/11 05:55:34;;;;;;;5.78;1.10;;;16.90;56.40;;;;;;5017752;28;20526;-60
2022/04/11 05:57:59;;;;;;;6.60;1.38;;;16.80;56.30;;;;;;5016223;28;20030;-60
2022/04/11 06:00:25;;;;;;;5.75;1.38;;;16.90;56.40;;;;;;5021417;28;20763;-60
2022/04/11 06:02:51;;;;;;;7.15;1.20;;;16.80;56.30;;;;;;5019534;28;20052;-60
2022/04/11 06:05:16;;;;;;;6.20;1.30;;;16.80;56.20;;;;;;5016449;28;20025;-60
2022/04/11 06:07:42;;;;;;;5.25;1.10;;;16.80;56.20;;;;;;5020297;28;20052;-60
2022/04/11 06:10:08;;;;;;;7.60;1.15;;;16.80;56.10;;;;;;5015443;28;20037;-60
2022/04/11 06:12:35;;;;;;;6.18;1.10;;;16.80;56.10;;;;;;5025800;28;20073;-60
2022/04/11 06:15:00;;;;;;;6.50;1.00;;;16.80;56.00;;;;;;5018076;28;20029;-60
2022/04/11 06:17:26;;;;;;;5.82;1.20;;;16.80;56.00;;;;;;5018053;28;20055;-60
2022/04/11 06:19:57;;;;;;;4.78;1.23;;;16.80;56.00;;;;;;5018490;28;20030;-60
2022/04/11 06:22:23;;;;;;;7.32;1.20;;;16.80;55.90;;;;;;5012592;28;20022;-60
2022/04/11 06:24:49;;;;;;;3.42;1.20;;;16.80;55.90;;;;;;5026505;28;20033;-60
2022/04/11 06:27:15;;;;;;;8.77;1.40;;;16.80;55.90;;;;;;5023623;28;20087;-61
2022/04/11 06:29:40;;;;;;;6.68;1.15;;;16.80;55.80;;;;;;5015079;28;20085;-61
2022/04/11 06:32:06;;;;;;;4.25;1.10;;;16.80;55.80;;;;;;5017027;28;20108;-60
2022/04/11 06:34:32;;;;;;;7.45;1.05;;;16.80;55.70;;;;;;5017349;28;20018;-61
2022/04/11 06:36:58;;;;;;;5.05;1.23;;;16.80;55.70;;;;;;5018822;28;20747;-60
2022/04/11 06:39:23;;;;;;;4.63;1.13;;;16.80;55.70;;;;;;5020361;28;20112;-60
2022/04/11 06:41:49;;;;;;;7.03;1.30;;;16.80;55.70;;;;;;5022471;28;20034;-60
2022/04/11 06:44:15;;;;;;;5.13;1.20;;;16.80;55.70;;;;;;5014000;28;20046;-60
2022/04/11 06:46:41;;;;;;;3.88;1.05;;;16.80;55.60;;;;;;5021543;28;20033;-60
2022/04/11 06:49:06;;;;;;;5.53;1.20;;;16.80;55.60;;;;;;5022355;28;20028;-60
2022/04/11 06:51:32;;;;;;;5.88;1.10;;;16.80;55.60;;;;;;5024201;28;20044;-60
2022/04/11 06:53:58;;;;;;;3.95;1.17;;;16.80;55.50;;;;;;5014206;28;20095;-61
2022/04/11 06:56:23;;;;;;;8.00;1.00;;;16.80;55.30;;;;;;5017690;28;20152;-61
2022/04/11 06:58:49;;;;;;;7.30;1.08;;;16.80;55.30;;;;;;5021015;28;20025;-61
2022/04/11 07:01:15;;;;;;;4.57;1.17;;;16.90;55.70;;;;;;5017713;28;20120;-61
2022/04/11 07:03:40;;;;;;;3.90;1.00;;;16.90;55.70;;;;;;5015203;28;20293;-61
2022/04/11 07:06:07;;;;;;;4.50;1.15;;;16.90;55.70;;;;;;5018546;28;20087;-61
2022/04/11 07:08:32;;;;;;;4.93;1.02;;;16.90;56.70;;;;;;5018126;28;20410;-61
2022/04/11 07:10:59;;;;;;;4.43;1.02;;;16.90;55.60;;;;;;5026657;28;20053;-61
2022/04/11 07:13:24;;;;;;;3.97;0.98;;;16.90;55.40;;;;;;5023461;28;20099;-61
2022/04/11 07:15:50;;;;;;;6.25;0.98;;;16.90;55.60;;;;;;5020018;28;20445;-61
2022/04/11 07:18:16;;;;;;;5.10;1.20;;;16.90;55.50;;;;;;5021291;28;20035;-61
2022/04/11 07:20:41;;;;;;;7.10;1.52;;;16.90;55.50;;;;;;5015425;28;20033;-61
2022/04/11 07:23:07;;;;;;;8.10;1.50;;;16.90;55.70;;;;;;5019230;28;20060;-61
2022/04/11 07:25:33;;;;;;;7.93;1.10;;;16.90;55.90;;;;;;5018623;28;20386;-61
2022/04/11 07:27:58;;;;;;;5.40;1.10;;;16.90;56.20;;;;;;5019920;28;20100;-61
2022/04/11 07:30:24;;;;;;;3.90;1.38;;;16.90;56.00;;;;;;5025039;28;20560;-61
2022/04/11 07:32:50;;;;;;;5.22;1.20;;;17.00;55.90;;;;;;5015031;28;20049;-61
2022/04/11 07:35:16;;;;;;;5.32;0.98;;;16.90;55.80;;;;;;5020819;28;20079;-61
2022/04/11 07:37:41;;;;;;;5.53;1.40;;;16.90;55.80;;;;;;5018229;28;20025;-61
2022/04/11 07:40:08;;;;;;;7.22;1.20;;;16.90;55.70;;;;;;5018153;28;20030;-61
2022/04/11 07:42:33;;;;;;;6.80;1.30;;;16.80;55.60;;;;;;5019096;28;20653;-61
2022/04/11 07:44:59;;;;;;;6.78;1.50;;;16.80;55.60;;;;;;5019364;28;20030;-61
2022/04/11 07:47:24;;;;;;;8.43;1.40;;;16.80;55.50;;;;;;5017830;28;20460;-61
2022/04/11 07:49:50;;;;;;;2.15;1.08;;;16.80;55.40;;;;;;5022766;28;20087;-61
2022/04/11 07:52:16;;;;;;;9.27;1.50;;;16.80;56.40;;;;;;5019952;28;20057;-62
2022/04/11 07:54:42;;;;;;;6.40;1.02;;;16.80;55.30;;;;;;5018077;28;20076;-61
2022/04/11 07:57:09;;;;;;;5.50;1.10;;;16.80;55.80;;;;;;5023313;28;20487;-61
2022/04/11 07:59:34;;;;;;;3.80;1.10;;;16.80;55.90;;;;;;5017582;28;20048;-61
2022/04/11 08:02:00;;;;;;;3.97;1.20;;;16.80;56.00;;;;;;5018044;28;20479;-61
2022/04/11 08:04:26;;;;;;;5.97;1.40;;;16.80;56.30;;;;;;5020582;28;20493;-61
2022/04/11 08:06:51;;;;;;;6.10;1.30;;;16.80;56.20;;;;;;5017801;28;20040;-61
2022/04/11 08:09:17;;;;;;;7.75;1.35;;;16.80;55.90;;;;;;5019135;28;20025;-61
2022/04/11 08:11:43;;;;;;;9.07;1.40;;;16.80;55.50;;;;;;5020291;28;20041;-61
2022/04/11 08:14:08;;;;;;;6.57;1.50;;;16.70;55.30;;;;;;5018580;28;20020;-61
2022/04/11 08:16:34;;;;;;;5.05;1.45;;;16.70;54.70;;;;;;5020439;28;20030;-61
2022/04/11 08:19:00;;;;;;;8.32;1.70;;;16.70;54.40;;;;;;5021292;28;20115;-61
2022/04/11 08:21:25;;;;;;;5.82;1.73;;;16.70;54.00;;;;;;5022551;28;20383;-61
2022/04/11 08:23:51;;;;;;;5.57;1.48;;;16.60;52.30;;;;;;5022680;28;20033;-61
2022/04/11 08:26:16;;;;;;;8.02;2.05;;;16.60;53.40;;;;;;5017196;28;20094;-61
2022/04/11 08:28:42;;;;;;;8.90;1.80;;;16.60;54.30;;;;;;5015131;28;20505;-61
2022/04/11 08:31:08;;;;;;;8.95;2.05;;;16.70;54.80;;;;;;5018837;28;20579;-61
2022/04/11 08:33:33;;;;;;;8.05;1.80;;;16.70;54.70;;;;;;5018304;28;20125;-61
2022/04/11 08:35:59;;;;;;;6.38;1.83;;;16.70;54.70;;;;;;5023334;28;20029;-61
2022/04/11 08:38:25;;;;;;;7.50;2.03;;;16.70;54.50;;;;;;5018787;28;20029;-61
2022/04/11 08:40:51;;;;;;;7.05;2.08;;;16.70;54.50;;;;;;5014517;28;20032;-61
2022/04/11 08:43:16;;;;;;;4.07;1.58;;;16.70;54.40;;;;;;5019481;28;20034;-61
2022/04/11 08:45:42;;;;;;;5.65;1.63;;;16.70;54.40;;;;;;5024402;28;20052;-61
2022/04/11 08:48:08;;;;;;;7.43;1.90;;;16.70;54.40;;;;;;5040774;28;20386;-61
2022/04/11 08:50:34;;;;;;;8.80;2.00;;;16.70;54.40;;;;;;5020084;28;20037;-61
2022/04/11 08:52:59;;;;;;;6.13;1.90;;;16.80;54.50;;;;;;5017952;28;20402;-61
2022/04/11 08:55:25;;;;;;;4.82;1.83;;;16.80;54.40;;;;;;5020952;28;20401;-61
2022/04/11 08:57:50;;;;;;;6.53;2.13;;;16.80;54.30;;;;;;5023224;28;20054;-61
2022/04/11 09:00:20;;;;;;;4.90;1.75;;;16.80;54.40;;;;;;5016136;28;20044;-61
2022/04/11 09:02:45;;;;;;;7.30;2.03;;;16.80;54.30;;;;;;5025801;28;20498;-61
2022/04/11 09:05:12;;;;;;;5.35;1.65;;;16.80;54.30;;;;;;5014281;28;20041;-61
2022/04/11 09:07:56;;;;;;;7.45;2.20;;;16.90;54.40;;;;;;5017825;28;20040;-61
2022/04/11 09:10:38;;;;;;;7.45;1.70;;;16.90;54.40;;;;;;5013520;28;20042;-62
2022/04/11 09:13:08;;;;;;;8.50;2.08;;;16.90;54.30;;;;;;5021585;28;20521;-62
2022/04/11 09:15:42;;;;;;;4.90;1.60;;;16.90;54.30;;;;;;5023261;28;20064;-61
2022/04/11 09:18:08;;;;;;;7.00;1.85;;;17.00;54.30;;;;;;5021836;28;20498;-61
2022/04/11 09:20:33;;;;;;;8.52;2.10;;;17.00;54.40;;;;;;5019915;28;20038;-61
2022/04/11 09:22:59;;;;;;;5.15;1.67;;;17.00;54.40;;;;;;5021422;28;20029;-61
2022/04/11 09:25:29;;;;;;;4.60;1.70;;;17.00;54.40;;;;;;5019191;28;20537;-61
2022/04/11 09:28:11;;;;;;;10.15;2.08;;;17.00;54.40;;;;;;5010708;28;20026;-62
2022/04/11 09:30:40;;;;;;;7.07;2.00;;;17.10;54.40;;;;;;5030858;28;20102;-61
2022/04/11 09:33:07;;;;;;;9.75;1.80;;;17.10;54.40;;;;;;5020496;28;20032;-61
2022/04/11 09:35:43;;;;;;;11.23;2.00;;;17.10;54.40;;;;;;5019131;28;20058;-62
2022/04/11 09:38:16;;;;;;;11.43;1.98;;;17.10;54.50;;;;;;5020894;28;20108;-61
2022/04/11 09:40:45;;;;;;;7.65;1.75;;;17.20;54.60;;;;;;5017967;28;20280;-61
2022/04/11 09:43:12;;;;;;;12.70;2.17;;;17.20;54.70;;;;;;5021335;28;20095;-62
2022/04/11 09:45:43;;;;;;;10.57;1.90;;;17.20;54.70;;;;;;5027260;28;20038;-61
2022/04/11 09:48:09;;;;;;;8.48;1.90;;;17.20;54.60;;;;;;5018747;28;20033;-61
2022/04/11 09:50:35;;;;;;;11.45;2.13;;;17.20;54.70;;;;;;5025405;28;20066;-61
2022/04/11 09:53:08;;;;;;;6.25;1.80;;;17.20;54.70;;;;;;5022979;28;20045;-61
2022/04/11 09:55:35;;;;;;;9.05;2.20;;;17.20;54.70;;;;;;5024069;28;20288;-61
2022/04/11 09:58:05;;;;;;;7.93;1.90;;;17.20;54.70;;;;;;5019141;28;20026;-61
2022/04/11 10:00:33;;;;;;;6.75;1.80;;;17.30;54.70;;;;;;5018301;28;20045;-61
2022/04/11 10:02:59;;;;;;;8.05;2.10;;;17.30;54.70;;;;;;5021583;28;20021;-61
2022/04/11 10:05:25;;;;;;;7.28;2.20;;;17.30;54.90;;;;;;5017388;28;20046;-61
2022/04/11 10:07:54;;;;;;;9.23;1.90;;;17.30;54.80;;;;;;5019739;28;20022;-61
2022/04/11 10:10:24;;;;;;;7.95;1.88;;;17.30;54.70;;;;;;5019612;28;20506;-61
2022/04/11 10:12:53;;;;;;;6.40;1.80;;;17.30;54.60;;;;;;5019386;28;20103;-61
2022/04/11 10:15:21;;;;;;;8.70;1.90;;;17.30;54.60;;;;;;5014810;28;20050;-61
2022/04/11 10:17:47;;;;;;;7.47;1.90;;;17.30;54.60;;;;;;5018618;28;20038;-61
2022/04/11 10:20:12;;;;;;;5.45;1.60;;;17.40;54.70;;;;;;5017024;28;20117;-61
2022/04/11 10:22:43;;;;;;;20.08;3.40;;;17.40;54.70;;;;;;5030642;28;20099;-61
2022/04/11 10:25:09;;;;;;;14.30;2.60;;;17.40;54.70;;;;;;4999093;28;20018;-61
2022/04/11 10:27:37;;;;;;;12.35;1.95;;;17.40;54.80;;;;;;5023953;28;20030;-61
2022/04/11 10:30:04;;;;;;;16.55;2.70;;;17.40;55.00;;;;;;5002208;28;20116;-61
2022/04/11 10:32:30;;;;;;;9.65;2.15;;;17.50;55.00;;;;;;5021190;28;20153;-62
2022/04/11 10:35:02;;;;;;;9.90;1.98;;;17.50;55.10;;;;;;5021487;28;20053;-61
2022/04/11 10:37:29;;;;;;;15.63;2.50;;;17.50;55.00;;;;;;5018181;28;20048;-61
2022/04/11 10:40:16;;;;;;;18.17;3.00;;;17.50;55.10;;;;;;5020181;28;20080;-61
2022/04/11 10:43:00;;;;;;;15.57;3.53;;;17.50;55.40;;;;;;5025347;28;20390;-61
2022/04/11 10:45:39;;;;;;;13.23;2.75;;;17.60;55.40;;;;;;5024321;28;20053;-61
2022/04/11 10:48:05;;;;;;;11.15;2.63;;;17.60;55.40;;;;;;5017358;28;20154;-61
2022/04/11 10:50:35;;;;;;;10.98;2.58;;;17.60;55.50;;;;;;5021051;28;20517;-61
2022/04/11 10:53:08;;;;;;;11.05;2.53;;;17.60;55.30;;;;;;5019653;28;20060;-61
2022/04/11 10:55:33;;;;;;;9.82;2.22;;;17.60;55.40;;;;;;5009575;28;20468;-57
2022/04/11 10:58:00;;;;;;;7.35;2.17;;;17.60;55.50;;;;;;5016350;28;20117;-57
2022/04/11 11:00:34;;;;;;;19.70;2.97;;;17.60;55.40;;;;;;5019159;28;20029;-57
2022/04/11 11:03:05;;;;;;;14.57;2.65;;;17.60;55.50;;;;;;5018517;28;20029;-57
2022/04/11 11:05:47;;;;;;;11.32;2.35;;;17.60;55.50;;;;;;5016262;28;20533;-57
2022/04/11 11:08:13;;;;;;;12.13;2.47;;;17.60;55.50;;;;;;5011721;28;20021;-57
2022/04/11 11:10:59;;;;;;;8.70;2.00;;;17.60;55.50;;;;;;5015562;28;20452;-57
2022/04/11 11:13:39;;;;;;;10.63;2.40;;;17.60;55.40;;;;;;5012940;28;20037;-57
2022/04/11 11:16:09;;;;;;;9.18;2.20;;;17.60;55.40;;;;;;5014556;28;20042;-56
2022/04/11 11:18:53;;;;;;;11.48;2.33;;;17.70;55.40;;;;;;5014173;28;20410;-57
2022/04/11 11:21:20;;;;;;;10.82;2.17;;;17.70;55.30;;;;;;5016355;28;20032;-57
2022/04/11 11:24:03;;;;;;;9.13;2.08;;;17.70;55.20;;;;;;5019004;28;20025;-57
2022/04/11 11:26:53;;;;;;;14.98;2.15;;;17.70;55.20;;;;;;5016388;28;20034;-57
2022/04/11 11:29:23;;;;;;;8.43;1.98;;;17.70;55.20;;;;;;5016214;28;20135;-57
2022/04/11 11:31:52;;;;;;;8.35;2.25;;;17.70;55.00;;;;;;5014776;28;20521;-57
2022/04/11 11:34:22;;;;;;;8.90;2.30;;;17.80;55.10;;;;;;5021428;28;20021;-67
2022/04/11 11:36:48;;;;;;;11.27;2.30;;;17.80;55.10;;;;;;5022030;28;20021;-65
2022/04/11 11:39:23;;;;;;;9.05;2.17;;;17.80;55.00;;;;;;5015845;28;20026;-65
2022/04/11 11:41:50;;;;;;;;;;;17.80;55.00;;;;;;5019819;28;20036;-65
2022/04/11 11:44:16;;;;;;;11.57;2.28;;;17.80;55.00;;;;;;5017102;28;19975;-65
2022/04/11 11:46:58;;;;;;;11.32;2.33;;;17.80;54.90;;;;;;5017193;28;20029;-65
2022/04/11 11:49:26;;;;;;;12.73;2.08;;;17.80;54.90;;;;;;5014673;28;20124;-65
2022/04/11 11:51:51;;;;;;;13.50;2.58;;;17.90;54.90;;;;;;5012540;28;20112;-65
2022/04/11 11:54:34;;;;;;;8.98;2.15;;;17.90;55.00;;;;;;5018521;28;20033;-65
2022/04/11 11:57:00;;;;;;;10.75;2.45;;;17.90;54.90;;;;;;5023253;28;20133;-65
2022/04/11 11:59:26;;;;;;;11.23;2.40;;;17.90;54.90;;;;;;5020489;28;20112;-65
2022/04/11 12:04:36;;;;;;;10.07;2.45;;;18.00;54.90;;;;;;5022793;28;20052;-65
2022/04/11 12:07:02;;;;;;;9.55;2.22;;;18.00;54.90;;;;;;5022780;28;20029;-64
2022/04/11 12:09:38;;;;;;;7.38;2.40;;;18.00;54.90;;;;;;5017022;28;20412;-65
2022/04/11 12:12:04;;;;;;;11.75;2.60;;;18.00;55.20;;;;;;5015209;28;20526;-65
2022/04/11 12:14:50;;;;;;;11.15;2.80;;;18.00;55.10;;;;;;5017808;28;20026;-65
2022/04/11 12:17:16;;;;;;;12.68;2.90;;;18.10;55.10;;;;;;5026042;28;20021;-64
2022/04/11 12:19:41;;;;;;;11.20;2.60;;;18.10;54.90;;;;;;5025874;28;20024;-65
2022/04/11 12:22:11;;;;;;;12.40;2.90;;;18.10;55.00;;;;;;5029592;28;20347;-65
2022/04/11 12:24:36;;;;;;;15.00;2.72;;;18.10;55.20;;;;;;5017068;28;20040;-65
2022/04/11 12:27:03;;;;;;;13.80;2.90;;;18.10;55.10;;;;;;5029767;28;20120;-65
2022/04/11 12:29:36;;;;;;;16.67;3.00;;;18.10;55.10;;;;;;5023827;28;20087;-65
2022/04/11 12:32:03;;;;;;;13.93;3.05;;;18.10;55.10;;;;;;5019847;28;20033;-65
2022/04/11 12:34:34;;;;;;;9.63;2.63;;;18.10;55.30;;;;;;5025742;28;20028;-65
2022/04/11 12:37:02;;;;;;;13.95;2.58;;;18.10;55.20;;;;;;5023222;28;20088;-66
2022/04/11 12:39:28;;;;;;;24.70;5.50;;;18.10;55.30;;;;;;5030460;28;20026;-65
2022/04/11 12:41:55;;;;;;;13.35;3.40;;;18.20;55.30;;;;;;5020138;28;20401;-66
2022/04/11 12:44:21;;;;;;;16.52;3.75;;;18.20;55.40;;;;;;5021688;28;20041;-65
2022/04/11 12:46:56;;;;;;;12.77;3.28;;;18.20;55.40;;;;;;5029416;28;20033;-66